createdAt,value
2019-03-19T00:03:00.620Z,65.59
2019-03-19T00:06:02.537Z,65.67
2019-03-19T00:09:05.569Z,65.02
2019-03-19T00:12:07.632Z,65.18
2019-03-19T00:15:10.398Z,65.05
2019-03-19T00:18:12.543Z,65.03
2019-03-19T00:21:14.472Z,65.16
2019-03-19T00:24:16.460Z,66.16
2019-03-19T00:27:18.350Z,65.99
2019-03-19T00:30:20.224Z,65.83
2019-03-19T00:33:22.138Z,66.05
2019-03-19T00:36:24.608Z,65.82
2019-03-19T00:39:26.544Z,65.99
2019-03-19T00:42:28.526Z,65.83
2019-03-19T00:45:30.417Z,65.94
2019-03-19T00:48:32.339Z,65.91
2019-03-19T00:51:34.175Z,65.95
2019-03-19T00:54:36.210Z,66.00
2019-03-19T00:57:38.143Z,66.11
2019-03-19T01:00:40.135Z,66.25
2019-03-19T01:03:42.058Z,66.23
2019-03-19T01:06:44.010Z,65.92
2019-03-19T01:09:45.930Z,66.03
2019-03-19T01:12:47.818Z,65.92
2019-03-19T01:15:49.839Z,65.72
2019-03-19T01:18:51.707Z,65.85
2019-03-19T01:21:54.621Z,65.95
2019-03-19T01:24:56.557Z,65.68
2019-03-19T01:27:58.552Z,65.73
2019-03-19T01:31:00.454Z,66.11
2019-03-19T01:34:02.368Z,65.97
2019-03-19T01:37:04.282Z,65.89
2019-03-19T01:40:08.580Z,66.02
2019-03-19T01:43:10.490Z,66.15
2019-03-19T01:46:12.410Z,66.22
2019-03-19T01:49:14.497Z,66.25
2019-03-19T01:52:16.328Z,66.50
2019-03-19T01:55:18.414Z,66.54
2019-03-19T01:58:20.387Z,66.49
2019-03-19T02:01:22.580Z,66.45
2019-03-19T02:04:24.510Z,66.46
2019-03-19T02:07:26.504Z,66.49
2019-03-19T02:10:28.617Z,66.54
2019-03-19T02:13:30.495Z,66.36
2019-03-19T02:16:32.414Z,66.62
2019-03-19T02:19:34.347Z,66.57
2019-03-19T02:22:36.259Z,66.66
2019-03-19T02:25:38.261Z,66.58
2019-03-19T02:28:43.016Z,66.60
2019-03-19T02:31:44.935Z,66.50
2019-03-19T02:34:47.023Z,66.45
2019-03-19T02:37:48.953Z,66.37
2019-03-19T02:40:50.874Z,66.48
2019-03-19T02:43:52.956Z,66.36
2019-03-19T02:46:54.864Z,66.44
2019-03-19T02:49:56.826Z,66.51
2019-03-19T02:52:58.864Z,66.50
2019-03-19T02:56:00.945Z,66.37
2019-03-19T02:59:02.839Z,66.36
2019-03-19T03:02:04.785Z,66.21
2019-03-19T03:05:13.092Z,66.14
2019-03-19T03:08:15.095Z,66.03
2019-03-19T03:11:17.046Z,66.13
2019-03-19T03:14:19.581Z,66.08
2019-03-19T03:17:21.536Z,66.00
2019-03-19T03:20:23.421Z,65.98
2019-03-19T03:23:25.454Z,65.97
2019-03-19T03:26:27.398Z,65.99
2019-03-19T03:29:29.419Z,65.94
2019-03-19T03:32:31.296Z,65.94
2019-03-19T03:35:33.434Z,65.92
2019-03-19T03:38:35.986Z,65.96
2019-03-19T03:41:38.258Z,65.98
2019-03-19T03:44:40.119Z,65.87
2019-03-19T03:47:42.031Z,65.87
2019-03-19T03:50:43.903Z,66.00
2019-03-19T03:53:45.957Z,65.98
2019-03-19T03:57:01.395Z,66.04
2019-03-19T03:59:52.317Z,66.24
2019-03-19T04:02:54.275Z,66.47
2019-03-19T04:05:56.188Z,66.31
2019-03-19T04:08:58.077Z,66.28
2019-03-19T04:12:00.060Z,66.19
2019-03-19T04:15:02.037Z,66.10
2019-03-19T04:18:04.084Z,66.02
2019-03-19T04:21:06.070Z,66.05
2019-03-19T04:24:07.941Z,66.08
2019-03-19T04:27:15.787Z,66.19
2019-03-19T04:30:18.378Z,66.29
2019-03-19T04:33:20.377Z,66.40
2019-03-19T04:36:22.420Z,66.40
2019-03-19T04:39:24.450Z,66.38
2019-03-19T04:42:26.511Z,66.48
2019-03-19T04:45:28.395Z,66.55
2019-03-19T04:48:30.322Z,66.63
2019-03-19T04:51:32.203Z,66.55
2019-03-19T04:54:34.179Z,66.67
2019-03-19T04:57:36.284Z,66.81
2019-03-19T05:00:38.209Z,66.56
2019-03-19T05:03:40.150Z,66.48
2019-03-19T05:06:42.095Z,66.34
2019-03-19T05:09:44.117Z,66.23
2019-03-19T05:12:46.093Z,66.05
2019-03-19T05:15:47.968Z,65.65
2019-03-19T05:18:49.889Z,65.15
2019-03-19T05:21:51.887Z,64.31
2019-03-19T05:24:53.770Z,63.20
2019-03-19T05:27:55.795Z,62.72
2019-03-19T05:30:57.653Z,62.14
2019-03-19T05:33:59.642Z,62.35
2019-03-19T05:37:01.598Z,62.66
2019-03-19T05:40:09.985Z,62.79
2019-03-19T05:43:11.957Z,62.79
2019-03-19T05:46:13.877Z,62.76
2019-03-19T05:49:15.838Z,62.60
2019-03-19T05:52:17.797Z,62.61
2019-03-19T05:55:19.682Z,62.68
2019-03-19T05:58:21.683Z,62.36
2019-03-19T06:01:23.621Z,62.18
2019-03-19T06:04:25.797Z,62.05
2019-03-19T06:07:27.665Z,62.02
2019-03-19T06:10:29.585Z,61.92
2019-03-19T06:13:31.470Z,61.81
2019-03-19T06:16:33.365Z,61.76
2019-03-19T06:19:35.286Z,61.87
2019-03-19T06:22:37.178Z,61.92
2019-03-19T06:25:39.590Z,61.60
2019-03-19T06:28:41.542Z,61.27
2019-03-19T06:31:43.513Z,60.56
2019-03-19T06:34:45.372Z,60.33
2019-03-19T06:37:47.283Z,59.19
2019-03-19T06:40:49.147Z,59.45
2019-03-19T06:43:51.201Z,59.26
2019-03-19T06:46:53.343Z,59.04
2019-03-19T06:49:55.673Z,58.49
2019-03-19T06:52:57.591Z,58.15
2019-03-19T06:55:59.504Z,57.71
2019-03-19T06:59:01.668Z,57.49
2019-03-19T07:02:03.709Z,56.40
2019-03-19T07:05:07.954Z,54.83
2019-03-19T07:08:10.145Z,51.77
2019-03-19T07:11:12.057Z,49.22
2019-03-19T07:14:14.230Z,47.42
2019-03-19T07:17:16.238Z,44.88
2019-03-19T07:20:28.635Z,42.85
2019-03-19T07:23:30.527Z,42.68
2019-03-19T07:26:32.443Z,41.15
2019-03-19T07:29:34.459Z,40.60
2019-03-19T07:32:36.417Z,41.38
2019-03-19T07:35:38.369Z,40.34
2019-03-19T07:38:40.360Z,39.70
2019-03-19T07:41:42.498Z,39.22
2019-03-19T07:44:44.466Z,39.12
2019-03-19T07:47:47.235Z,37.01
2019-03-19T07:50:49.119Z,36.92
2019-03-19T07:53:51.027Z,35.59
2019-03-19T07:56:54.147Z,35.36
2019-03-19T07:59:56.456Z,36.78
2019-03-19T08:02:58.333Z,36.34
2019-03-19T08:06:00.269Z,34.29
2019-03-19T08:09:04.139Z,34.09
2019-03-19T08:12:06.215Z,33.93
2019-03-19T08:15:12.677Z,33.68
2019-03-19T08:18:14.644Z,32.14
2019-03-19T08:21:16.609Z,32.02
2019-03-19T08:24:18.608Z,33.53
2019-03-19T08:27:20.582Z,32.92
2019-03-19T08:30:25.069Z,33.67
2019-03-19T08:33:27.424Z,33.81
2019-03-19T08:36:29.296Z,34.69
2019-03-19T08:39:31.221Z,34.23
2019-03-19T08:42:33.110Z,33.91
2019-03-19T08:45:34.997Z,33.94
2019-03-19T08:48:37.774Z,32.81
2019-03-19T08:51:39.657Z,33.92
2019-03-19T08:54:41.656Z,33.38
2019-03-19T08:57:43.606Z,33.08
2019-03-19T09:00:46.993Z,33.59
2019-03-19T09:03:52.155Z,33.64
2019-03-19T09:06:54.122Z,34.04
2019-03-19T09:09:55.984Z,33.81
2019-03-19T09:12:57.915Z,34.78
2019-03-19T09:15:59.796Z,33.54
2019-03-19T09:19:01.750Z,32.28
2019-03-19T09:22:03.729Z,33.99
2019-03-19T09:25:07.448Z,33.70
2019-03-19T09:28:09.406Z,32.64
2019-03-19T09:31:11.350Z,32.93
2019-03-19T09:34:15.079Z,33.11
2019-03-19T09:37:18.198Z,33.23
2019-03-19T09:40:21.089Z,33.30
2019-03-19T09:43:23.017Z,33.00
2019-03-19T09:46:25.076Z,33.27
2019-03-19T09:49:27.063Z,33.38
2019-03-19T09:52:29.139Z,33.73
2019-03-19T09:55:31.113Z,35.43
2019-03-19T09:58:33.654Z,35.87
2019-03-19T10:01:35.716Z,35.86
2019-03-19T10:04:37.718Z,35.23
2019-03-19T10:07:39.901Z,35.08
2019-03-19T10:10:41.863Z,35.08
2019-03-19T10:13:44.060Z,34.40
2019-03-19T10:16:45.957Z,34.40
2019-03-19T10:19:47.868Z,34.12
2019-03-19T10:22:50.191Z,32.99
2019-03-19T10:25:52.330Z,33.36
2019-03-19T10:28:54.216Z,33.47
2019-03-19T10:31:56.244Z,34.63
2019-03-19T10:34:58.184Z,34.71
2019-03-19T10:38:00.238Z,34.56
2019-03-19T10:41:02.136Z,34.07
2019-03-19T10:44:04.233Z,34.97
2019-03-19T10:47:06.190Z,35.18
2019-03-19T10:50:11.716Z,36.13
2019-03-19T10:53:13.677Z,35.46
2019-03-19T10:56:15.626Z,35.08
2019-03-19T10:59:17.587Z,35.74
2019-03-19T11:02:19.897Z,35.23
2019-03-19T11:05:23.206Z,35.90
2019-03-19T11:08:25.225Z,34.66
2019-03-19T11:11:27.118Z,34.00
2019-03-19T11:14:29.026Z,33.69
2019-03-19T11:17:30.943Z,34.70
2019-03-19T11:20:32.947Z,34.25
2019-03-19T11:23:34.766Z,33.88
2019-03-19T11:26:37.031Z,34.11
2019-03-19T11:29:38.919Z,33.94
2019-03-19T11:32:40.911Z,34.03
2019-03-19T11:35:42.919Z,33.71
2019-03-19T11:38:45.117Z,33.96
2019-03-19T11:41:48.200Z,33.81
2019-03-19T11:44:50.151Z,33.57
2019-03-19T11:47:52.148Z,33.63
2019-03-19T11:50:54.060Z,34.76
2019-03-19T11:53:55.963Z,33.79
2019-03-19T11:56:57.918Z,33.16
2019-03-19T12:00:10.448Z,32.00
2019-03-19T12:03:14.897Z,32.74
2019-03-19T12:06:09.802Z,33.22
2019-03-19T12:09:11.671Z,34.78
2019-03-19T12:12:13.700Z,34.00
2019-03-19T12:15:15.651Z,34.26
2019-03-19T12:18:17.647Z,33.78
2019-03-19T12:21:19.549Z,34.14
2019-03-19T12:24:21.541Z,34.45
2019-03-19T12:27:23.531Z,35.04
2019-03-19T12:30:28.252Z,34.14
2019-03-19T12:33:40.112Z,33.50
2019-03-19T12:36:34.129Z,32.41
2019-03-19T12:39:36.002Z,31.81
2019-03-19T12:42:37.956Z,31.34
2019-03-19T12:45:39.849Z,32.07
2019-03-19T12:48:41.992Z,32.36
2019-03-19T12:51:44.085Z,31.43
2019-03-19T12:54:45.954Z,32.14
2019-03-19T12:57:47.968Z,32.05
2019-03-19T13:00:49.901Z,32.12
2019-03-19T13:03:52.078Z,32.57
2019-03-19T13:06:54.316Z,31.79
2019-03-19T13:09:56.360Z,31.91
2019-03-19T13:12:58.270Z,31.50
2019-03-19T13:16:00.224Z,30.98
2019-03-19T13:19:02.150Z,31.13
2019-03-19T13:22:04.254Z,31.39
2019-03-19T13:25:11.642Z,31.82
2019-03-19T13:28:13.685Z,30.48
2019-03-19T13:31:15.782Z,30.75
2019-03-19T13:34:18.086Z,30.48
2019-03-19T13:37:20.279Z,29.87
2019-03-19T13:40:22.255Z,29.25
2019-03-19T13:43:24.309Z,30.08
2019-03-19T13:46:26.299Z,31.36
2019-03-19T13:49:28.346Z,30.57
2019-03-19T13:52:30.274Z,31.21
2019-03-19T13:55:32.328Z,30.84
2019-03-19T13:58:34.258Z,30.89
2019-03-19T14:01:36.343Z,31.19
2019-03-19T14:04:38.541Z,31.21
2019-03-19T14:07:40.631Z,30.37
2019-03-19T14:10:42.474Z,30.89
2019-03-19T14:13:44.568Z,30.90
2019-03-19T14:16:46.481Z,30.90
2019-03-19T14:19:48.616Z,31.44
2019-03-19T14:22:50.542Z,31.52
2019-03-19T14:25:52.421Z,31.85
2019-03-19T14:28:54.297Z,32.44
2019-03-19T14:31:56.524Z,33.25
2019-03-19T14:34:58.663Z,32.87
2019-03-19T14:38:01.375Z,32.80
2019-03-19T14:41:03.430Z,33.32
2019-03-19T14:44:05.391Z,33.49
2019-03-19T14:47:07.471Z,32.94
2019-03-19T14:50:12.045Z,32.83
2019-03-19T14:53:13.996Z,33.00
2019-03-19T14:56:16.002Z,32.76
2019-03-19T14:59:17.990Z,32.69
2019-03-19T15:02:20.966Z,33.47
2019-03-19T15:05:23.058Z,33.36
2019-03-19T15:08:25.581Z,33.37
2019-03-19T15:11:27.841Z,33.09
2019-03-19T15:14:29.796Z,32.90
2019-03-19T15:17:31.861Z,33.18
2019-03-19T15:20:34.975Z,33.12
2019-03-19T15:23:37.075Z,33.80
2019-03-19T15:26:40.428Z,34.48
2019-03-19T15:29:42.434Z,34.56
2019-03-19T15:32:45.099Z,35.08
2019-03-19T15:35:47.193Z,35.64
2019-03-19T15:38:49.124Z,35.55
2019-03-19T15:41:51.074Z,35.74
2019-03-19T15:44:53.072Z,36.31
2019-03-19T15:47:55.182Z,36.14
2019-03-19T15:50:57.210Z,36.92
2019-03-19T15:53:59.133Z,37.31
2019-03-19T15:57:01.018Z,37.81
2019-03-19T16:00:06.870Z,38.22
2019-03-19T16:03:08.768Z,38.76
2019-03-19T16:06:10.975Z,38.45
2019-03-19T16:09:13.269Z,38.23
2019-03-19T16:12:15.494Z,37.65
2019-03-19T16:15:21.042Z,38.88
2019-03-19T16:18:23.717Z,39.63
2019-03-19T16:21:25.606Z,40.01
2019-03-19T16:24:27.886Z,40.64
2019-03-19T16:27:29.863Z,41.20
2019-03-19T16:30:31.985Z,41.46
2019-03-19T16:33:34.829Z,41.42
2019-03-19T16:36:37.028Z,40.84
2019-03-19T16:39:39.109Z,40.93
2019-03-19T16:42:42.275Z,41.29
2019-03-19T16:45:44.884Z,41.12
2019-03-19T16:48:46.952Z,41.21
2019-03-19T16:51:49.280Z,41.56
2019-03-19T16:54:51.367Z,41.85
2019-03-19T16:57:53.564Z,42.32
2019-03-19T17:00:55.595Z,42.59
2019-03-19T17:03:57.575Z,42.84
2019-03-19T17:06:59.751Z,43.53
2019-03-19T17:10:03.282Z,43.94
2019-03-19T17:13:05.318Z,43.83
2019-03-19T17:16:07.353Z,44.32
2019-03-19T17:19:09.508Z,44.71
2019-03-19T17:22:11.586Z,45.51
2019-03-19T17:25:21.161Z,45.78
2019-03-19T17:28:24.559Z,45.67
2019-03-19T17:31:26.621Z,46.19
2019-03-19T17:34:30.750Z,47.24
2019-03-19T17:37:36.507Z,47.61
2019-03-19T17:40:41.596Z,48.71
2019-03-19T17:43:43.919Z,48.98
2019-03-19T17:46:45.831Z,49.16
2019-03-19T17:49:50.580Z,49.18
2019-03-19T17:52:53.629Z,49.29
2019-03-19T17:55:55.716Z,49.15
2019-03-19T17:58:57.694Z,49.28
2019-03-19T18:02:01.413Z,49.25
2019-03-19T18:05:06.041Z,49.07
2019-03-19T18:08:09.111Z,49.24
2019-03-19T18:11:13.276Z,48.97
2019-03-19T18:14:18.625Z,48.98
2019-03-19T18:17:20.591Z,49.22
2019-03-19T18:20:22.504Z,48.88
2019-03-19T18:23:26.342Z,48.97
2019-03-19T18:26:28.213Z,49.68
2019-03-19T18:29:36.163Z,50.33
2019-03-19T18:32:38.202Z,50.77
2019-03-19T18:35:41.993Z,50.88
2019-03-19T18:38:44.067Z,51.14
2019-03-19T18:41:50.377Z,51.89
2019-03-19T18:44:54.466Z,51.98
2019-03-19T18:47:56.487Z,52.15
2019-03-19T18:50:58.860Z,52.71
2019-03-19T18:54:00.750Z,52.70
2019-03-19T18:57:03.357Z,53.00
2019-03-19T19:00:11.529Z,53.52
2019-03-19T19:03:15.847Z,53.80
2019-03-19T19:06:17.729Z,53.80
2019-03-19T19:09:21.145Z,54.03
2019-03-19T19:12:24.632Z,54.27
2019-03-19T19:15:27.738Z,54.34
2019-03-19T19:18:29.683Z,54.37
2019-03-19T19:21:32.777Z,54.70
2019-03-19T19:24:34.769Z,54.82
2019-03-19T19:27:36.712Z,54.60
2019-03-19T19:30:41.852Z,54.64
2019-03-19T19:33:43.865Z,54.60
2019-03-19T19:36:47.579Z,55.00
2019-03-19T19:39:53.904Z,55.27
2019-03-19T19:42:57.841Z,55.59
2019-03-19T19:45:59.810Z,56.10
2019-03-19T19:49:05.352Z,55.94
2019-03-19T19:52:13.740Z,56.26
2019-03-19T19:55:16.274Z,56.76
2019-03-19T19:58:19.276Z,56.93
2019-03-19T20:01:21.837Z,57.25
2019-03-19T20:04:23.739Z,57.83
2019-03-19T20:07:25.895Z,57.58
2019-03-19T20:10:32.514Z,57.66
2019-03-19T20:13:35.038Z,58.00
2019-03-19T20:16:37.190Z,57.75
2019-03-19T20:19:40.455Z,57.72
2019-03-19T20:22:44.707Z,58.12
2019-03-19T20:25:46.423Z,58.33
2019-03-19T20:28:50.200Z,58.56
2019-03-19T20:31:52.174Z,59.26
2019-03-19T20:34:54.073Z,58.54
2019-03-19T20:37:56.257Z,58.85
2019-03-19T20:41:00.514Z,58.79
2019-03-19T20:44:05.764Z,59.04
2019-03-19T20:47:07.877Z,58.74
2019-03-19T20:50:16.068Z,58.80
2019-03-19T20:53:19.063Z,58.75
2019-03-19T20:56:22.825Z,58.83
2019-03-19T20:59:25.718Z,58.69
2019-03-19T21:02:28.174Z,58.89
2019-03-19T21:05:32.417Z,58.94
2019-03-19T21:08:34.495Z,58.78
2019-03-19T21:11:37.162Z,58.69
2019-03-19T21:14:39.136Z,58.71
2019-03-19T21:17:41.778Z,58.82
2019-03-19T21:20:43.724Z,59.00
2019-03-19T21:23:46.037Z,59.01
2019-03-19T21:26:49.601Z,59.06
2019-03-19T21:29:52.901Z,60.36
2019-03-19T21:32:54.852Z,59.57
2019-03-19T21:35:58.035Z,59.87
2019-03-19T21:38:59.893Z,59.91
2019-03-19T21:42:01.919Z,59.76
2019-03-19T21:45:09.794Z,60.61
2019-03-19T21:48:14.709Z,60.59
2019-03-19T21:51:16.621Z,60.82
2019-03-19T21:54:18.611Z,60.87
2019-03-19T21:57:20.510Z,61.07
2019-03-19T22:00:23.674Z,60.78
2019-03-19T22:03:25.674Z,60.72
2019-03-19T22:06:27.521Z,60.69
2019-03-19T22:09:29.538Z,60.64
2019-03-19T22:12:31.686Z,60.84
2019-03-19T22:15:33.786Z,61.04
2019-03-19T22:18:35.701Z,60.73
2019-03-19T22:21:37.578Z,60.83
2019-03-19T22:24:39.499Z,60.67
2019-03-19T22:27:41.634Z,61.13
2019-03-19T22:30:43.579Z,61.21
2019-03-19T22:33:45.461Z,61.09
2019-03-19T22:36:47.391Z,61.36
2019-03-19T22:39:49.335Z,61.78
2019-03-19T22:42:51.482Z,61.76
2019-03-19T22:45:53.396Z,61.74
2019-03-19T22:48:55.358Z,61.55
2019-03-19T22:51:57.200Z,61.32
2019-03-19T22:54:59.238Z,61.64
2019-03-19T22:58:01.092Z,61.14
2019-03-19T23:01:03.240Z,61.24
2019-03-19T23:04:06.950Z,61.65
2019-03-19T23:07:08.900Z,62.17
2019-03-19T23:10:10.791Z,61.68
2019-03-19T23:13:14.036Z,61.37
2019-03-19T23:16:16.018Z,61.34
2019-03-19T23:19:17.989Z,61.39
2019-03-19T23:22:19.870Z,61.20
2019-03-19T23:25:21.756Z,61.01
2019-03-19T23:28:23.672Z,61.02
2019-03-19T23:31:25.647Z,60.98
2019-03-19T23:34:37.887Z,61.13
2019-03-19T23:37:31.379Z,61.25
2019-03-19T23:40:33.349Z,61.53
2019-03-19T23:43:36.426Z,61.72
2019-03-19T23:46:38.418Z,61.49
2019-03-19T23:49:40.389Z,61.64
2019-03-19T23:52:42.377Z,61.96
2019-03-19T23:55:44.354Z,61.67
2019-03-19T23:58:46.260Z,61.39
